Time,TemperatureF,DewpointF,PressureIn,WindDirection,WindDirectionDegrees,WindSpeedMPH,WindSpeedGustMPH,Humidity,HourlyPrecipIn,Conditions,Clouds,dailyrainin,SoftwareType,DateUTC
2013-02-01 00:05:00,30.8,17.0,30.40,ENE,76,7.0,17.0,58,0.00,,,0.00,weatherlink.com 1.10,2013-02-01 06:05:00,
2013-02-01 00:10:00,30.6,17.6,30.40,NE,39,10.0,10.0,58,0.00,,,0.00,Wunderground v.1.15,2013-02-01 06:10:00,
2013-02-01 00:15:00,30.5,17.5,30.40,NE,40,9.0,10.0,58,0.00,,,0.00,Wunderground v.1.15,2013-02-01 06:15:00,
2013-02-01 00:19:00,30.3,17.0,30.41,ENE,63,7.0,14.0,59,0.00,,,0.00,weatherlink.com 1.10,2013-02-01 06:19:00,
2013-02-01 00:25:00,30.1,17.9,30.40,NNE,20,8.0,8.0,60,0.00,,,0.00,Wunderground v.1.15,2013-02-01 06:25:00,
2013-02-01 00:30:00,30.1,17.9,30.41,NE,43,8.0,8.0,60,0.00,,,0.00,Wunderground v.1.15,2013-02-01 06:30:00,
2013-02-01 00:35:00,29.9,18.0,30.40,NNE,26,11.0,16.0,61,0.00,,,0.00,weatherlink.com 1.10,2013-02-01 06:35:00,
2013-02-01 00:40:00,29.8,18.0,30.40,NE,38,9.0,9.0,61,0.00,,,0.00,Wunderground v.1.15,2013-02-01 06:40:00,
2013-02-01 00:50:00,29.6,17.0,30.41,ENE,72,12.0,16.0,60,0.00,,,0.00,weatherlink.com 1.10,2013-02-01 06:50:00,
2013-02-01 00:55:00,29.6,17.4,30.40,ENE,76,10.0,14.0,60,0.00,,,0.00,Wunderground v.1.15,2013-02-01 06:55:00,
2013-02-01 01:00:00,29.4,17.6,30.40,NNE,23,9.0,10.0,61,0.00,,,0.00,Wunderground v.1.15,2013-02-01 07:00:00,
2013-02-01 01:04:00,29.3,17.0,30.41,NE,44,8.0,17.0,60,0.00,,,0.00,weatherlink.com 1.10,2013-02-01 07:04:00,
2013-02-01 01:10:00,29.2,17.0,30.41,NE,41,9.0,9.0,60,0.00,,,0.00,Wunderground v.1.15,2013-02-01 07:10:00,
2013-02-01 01:15:00,29.2,17.0,30.42,NE,53,8.0,9.0,60,0.00,,,0.00,Wunderground v.1.15,2013-02-01 07:15:00,
2013-02-01 01:19:00,29.1,17.0,30.42,NE,46,9.0,12.0,61,0.00,,,0.00,weatherlink.com 1.10,2013-02-01 07:19:00,
2013-02-01 01:25:00,28.9,17.1,30.42,ENE,65,7.0,8.0,61,0.00,,,0.00,Wunderground v.1.15,2013-02-01 07:25:00,
2013-02-01 01:30:00,28.8,17.0,30.43,NE,46,6.0,8.0,61,0.00,,,0.00,Wunderground v.1.15,2013-02-01 07:30:00,
2013-02-01 01:34:00,28.7,17.0,30.43,NE,38,6.0,11.0,62,0.00,,,0.00,weatherlink.com 1.10,2013-02-01 07:34:00,
2013-02-01 01:35:00,28.7,17.3,30.43,NNE,27,6.0,8.0,62,0.00,,,0.00,Wunderground v.1.15,2013-02-01 07:35:00,
2013-02-01 01:40:00,28.7,17.3,30.43,ENE,63,7.0,9.0,62,0.00,,,0.00,Wunderground v.1.15,2013-02-01 07:40:00,
2013-02-01 01:45:00,28.7,17.7,30.42,NE,55,7.0,9.0,63,0.00,,,0.00,Wunderground v.1.15,2013-02-01 07:45:00,
2013-02-01 01:49:00,28.6,17.0,30.43,NE,52,3.0,16.0,63,0.00,,,0.00,weatherlink.com 1.10,2013-02-01 07:49:00,
2013-02-01 01:55:00,28.5,17.5,30.43,NE,38,7.0,8.0,63,0.00,,,0.00,Wunderground v.1.15,2013-02-01 07:55:00,
2013-02-01 02:00:00,28.4,17.4,30.43,NE,49,8.0,8.0,63,0.00,,,0.00,Wunderground v.1.15,2013-02-01 08:00:00,
2013-02-01 02:04:00,28.4,17.0,30.43,NNE,30,5.0,15.0,63,0.00,,,0.00,weatherlink.com 1.10,2013-02-01 08:04:00,
2013-02-01 02:10:00,28.3,17.3,30.43,NE,44,8.0,8.0,63,0.00,,,0.00,Wunderground v.1.15,2013-02-01 08:10:00,
2013-02-01 02:15:00,28.1,17.1,30.43,NE,45,7.0,8.0,63,0.00,,,0.00,Wunderground v.1.15,2013-02-01 08:15:00,
2013-02-01 02:20:00,28.0,17.4,30.43,NE,53,8.0,14.0,64,0.00,,,0.00,Wunderground v.1.15,2013-02-01 08:20:00,
2013-02-01 02:21:00,28.0,17.0,30.43,NNE,32,10.0,14.0,63,0.00,,,0.00,weatherlink.com 1.10,2013-02-01 08:21:00,
2013-02-01 02:30:00,27.9,16.9,30.43,NNE,32,8.0,8.0,63,0.00,,,0.00,Wunderground v.1.15,2013-02-01 08:30:00,
2013-02-01 02:40:00,27.8,16.8,30.43,NE,34,10.0,10.0,63,0.00,,,0.00,Wunderground v.1.15,2013-02-01 08:40:00,
2013-02-01 02:50:00,27.5,16.5,30.43,NE,55,9.0,9.0,63,0.00,,,0.00,Wunderground v.1.15,2013-02-01 08:50:00,
2013-02-01 02:51:00,27.5,16.0,30.43,NE,36,4.0,14.0,63,0.00,,,0.00,weatherlink.com 1.10,2013-02-01 08:51:00,
2013-02-01 02:55:00,27.4,16.4,30.43,NE,53,7.0,9.0,63,0.00,,,0.00,Wunderground v.1.15,2013-02-01 08:55:00,
2013-02-01 03:00:00,27.4,16.8,30.44,NE,36,5.0,5.0,64,0.00,,,0.00,Wunderground v.1.15,2013-02-01 09:00:00,
2013-02-01 03:05:00,27.3,16.4,30.44,NE,38,4.0,7.0,63,0.00,,,0.00,Wunderground v.1.15,2013-02-01 09:05:00,
2013-02-01 03:06:00,27.2,16.0,30.44,ENE,71,5.0,10.0,63,0.00,,,0.00,weatherlink.com 1.10,2013-02-01 09:06:00,
2013-02-01 03:15:00,27.0,16.1,30.44,NE,39,6.0,8.0,63,0.00,,,0.00,Wunderground v.1.15,2013-02-01 09:15:00,
2013-02-01 03:20:00,26.9,16.0,30.44,NE,40,6.0,6.0,63,0.00,,,0.00,Wunderground v.1.15,2013-02-01 09:20:00,
2013-02-01 03:21:00,26.9,16.0,30.44,NE,44,4.0,12.0,63,0.00,,,0.00,weatherlink.com 1.10,2013-02-01 09:21:00,
2013-02-01 03:30:00,26.7,15.8,30.44,NE,44,6.0,6.0,63,0.00,,,0.00,Wunderground v.1.15,2013-02-01 09:30:00,
2013-02-01 03:36:00,26.6,15.0,30.44,ENE,57,7.0,12.0,63,0.00,,,0.00,weatherlink.com 1.10,2013-02-01 09:36:00,
2013-02-01 03:45:00,26.5,15.6,30.44,NE,52,6.0,8.0,63,0.00,,,0.00,Wunderground v.1.15,2013-02-01 09:45:00,
2013-02-01 03:50:00,26.4,15.5,30.44,NE,38,6.0,9.0,63,0.00,,,0.00,Wunderground v.1.15,2013-02-01 09:50:00,
2013-02-01 03:51:00,26.4,15.0,30.44,NNE,25,6.0,10.0,63,0.00,,,0.00,weatherlink.com 1.10,2013-02-01 09:51:00,
2013-02-01 04:00:00,26.2,15.3,30.43,NE,45,7.0,7.0,63,0.00,,,0.00,Wunderground v.1.15,2013-02-01 10:00:00,
2013-02-01 04:06:00,26.2,15.0,30.43,NE,42,10.0,13.0,63,0.00,,,0.00,weatherlink.com 1.10,2013-02-01 10:06:00,
2013-02-01 04:15:00,26.0,15.5,30.43,ENE,57,6.0,9.0,64,0.00,,,0.00,Wunderground v.1.15,2013-02-01 10:15:00,
2013-02-01 04:20:00,25.9,15.4,30.42,NNE,33,5.0,10.0,64,0.00,,,0.00,Wunderground v.1.15,2013-02-01 10:20:00,
2013-02-01 04:21:00,25.9,15.0,30.43,NE,34,10.0,12.0,64,0.00,,,0.00,weatherlink.com 1.10,2013-02-01 10:21:00,
2013-02-01 04:30:00,25.7,15.2,30.42,ENE,69,7.0,7.0,64,0.00,,,0.00,Wunderground v.1.15,2013-02-01 10:30:00,
2013-02-01 04:35:00,25.6,15.1,30.43,NE,43,6.0,9.0,64,0.00,,,0.00,Wunderground v.1.15,2013-02-01 10:35:00,
2013-02-01 04:36:00,25.6,15.0,30.43,NE,38,5.0,11.0,64,0.00,,,0.00,weatherlink.com 1.10,2013-02-01 10:36:00,
2013-02-01 04:45:00,25.5,15.0,30.43,NE,40,6.0,6.0,64,0.00,,,0.00,Wunderground v.1.15,2013-02-01 10:45:00,
2013-02-01 04:51:00,25.4,14.0,30.43,NE,56,6.0,11.0,63,0.00,,,0.00,weatherlink.com 1.10,2013-02-01 10:51:00,
2013-02-01 04:55:00,25.3,14.5,30.43,NE,43,7.0,8.0,63,0.00,,,0.00,Wunderground v.1.15,2013-02-01 10:55:00,
2013-02-01 05:00:00,25.3,14.5,30.43,NE,35,6.0,6.0,63,0.00,,,0.00,Wunderground v.1.15,2013-02-01 11:00:00,
2013-02-01 05:07:00,25.2,14.0,30.43,ENE,60,9.0,11.0,63,0.00,,,0.00,weatherlink.com 1.10,2013-02-01 11:07:00,
2013-02-01 05:15:00,25.1,13.9,30.43,East,88,6.0,7.0,62,0.00,,,0.00,Wunderground v.1.15,2013-02-01 11:15:00,
2013-02-01 05:20:00,25.0,13.8,30.43,NE,46,6.0,6.0,62,0.00,,,0.00,Wunderground v.1.15,2013-02-01 11:20:00,
2013-02-01 05:22:00,25.0,14.0,30.43,NE,46,6.0,10.0,62,0.00,,,0.00,weatherlink.com 1.10,2013-02-01 11:22:00,
2013-02-01 05:30:00,25.0,13.4,30.43,NE,48,6.0,6.0,61,0.00,,,0.00,Wunderground v.1.15,2013-02-01 11:30:00,
2013-02-01 05:37:00,24.9,13.0,30.43,NE,55,5.0,8.0,61,0.00,,,0.00,weatherlink.com 1.10,2013-02-01 11:37:00,
2013-02-01 05:45:00,24.8,13.2,30.44,ENE,58,5.0,5.0,61,0.00,,,0.00,Wunderground v.1.15,2013-02-01 11:45:00,
2013-02-01 05:50:00,24.8,13.2,30.44,NE,53,5.0,5.0,61,0.00,,,0.00,Wunderground v.1.15,2013-02-01 11:50:00,
2013-02-01 05:52:00,24.7,13.0,30.44,NNE,30,6.0,8.0,61,0.00,,,0.00,weatherlink.com 1.10,2013-02-01 11:52:00,
2013-02-01 06:00:00,24.7,12.8,30.44,NNE,24,4.0,4.0,60,0.00,,,0.00,Wunderground v.1.15,2013-02-01 12:00:00,
2013-02-01 06:07:00,24.6,12.0,30.44,ENE,59,3.0,7.0,60,0.00,,,0.00,weatherlink.com 1.10,2013-02-01 12:07:00,
2013-02-01 06:10:00,24.6,12.7,30.44,NE,51,4.0,4.0,60,0.00,,,0.00,Wunderground v.1.15,2013-02-01 12:10:00,
2013-02-01 06:15:00,24.5,12.6,30.44,NE,40,4.0,4.0,60,0.00,,,0.00,Wunderground v.1.15,2013-02-01 12:15:00,
2013-02-01 06:20:00,24.5,12.2,30.44,NE,40,4.0,5.0,59,0.00,,,0.00,Wunderground v.1.15,2013-02-01 12:20:00,
2013-02-01 06:22:00,24.4,12.0,30.44,ENE,57,5.0,7.0,59,0.00,,,0.00,weatherlink.com 1.10,2013-02-01 12:22:00,
2013-02-01 06:25:00,24.4,12.1,30.44,NE,49,4.0,5.0,59,0.00,,,0.00,Wunderground v.1.15,2013-02-01 12:25:00,
2013-02-01 06:35:00,24.2,12.3,30.44,NE,54,4.0,5.0,60,0.00,,,0.00,Wunderground v.1.15,2013-02-01 12:35:00,
2013-02-01 06:37:00,24.2,12.0,30.44,NE,47,3.0,7.0,60,0.00,,,0.00,weatherlink.com 1.10,2013-02-01 12:37:00,
2013-02-01 06:45:00,24.2,12.3,30.44,NE,50,3.0,3.0,60,0.00,,,0.00,Wunderground v.1.15,2013-02-01 12:45:00,
2013-02-01 06:52:00,24.2,12.0,30.44,East,85,2.0,5.0,60,0.00,,,0.00,weatherlink.com 1.10,2013-02-01 12:52:00,
2013-02-01 07:00:00,24.2,12.3,30.43,NE,48,3.0,3.0,60,0.00,,,0.00,Wunderground v.1.15,2013-02-01 13:00:00,
2013-02-01 07:05:00,24.0,12.1,30.43,NE,51,4.0,5.0,60,0.00,,,0.00,Wunderground v.1.15,2013-02-01 13:05:00,
2013-02-01 07:09:00,24.0,12.0,30.43,NE,42,5.0,7.0,60,0.00,,,0.00,weatherlink.com 1.10,2013-02-01 13:09:00,
2013-02-01 07:15:00,24.0,12.5,30.44,East,96,4.0,6.0,61,0.00,,,0.00,Wunderground v.1.15,2013-02-01 13:15:00,
2013-02-01 07:20:00,23.9,12.4,30.44,East,100,4.0,4.0,61,0.00,,,0.00,Wunderground v.1.15,2013-02-01 13:20:00,
2013-02-01 07:23:00,23.8,12.0,30.44,East,90,3.0,8.0,61,0.00,,,0.00,weatherlink.com 1.10,2013-02-01 13:23:00,
2013-02-01 07:25:00,23.8,12.3,30.44,ESE,103,4.0,5.0,61,0.00,,,0.00,Wunderground v.1.15,2013-02-01 13:25:00,
2013-02-01 07:30:00,23.7,12.6,30.44,East,97,4.0,6.0,62,0.00,,,0.00,Wunderground v.1.15,2013-02-01 13:30:00,
2013-02-01 07:35:00,23.5,12.7,30.44,ESE,115,4.0,6.0,63,0.00,,,0.00,Wunderground v.1.15,2013-02-01 13:35:00,
2013-02-01 07:39:00,23.6,13.0,30.45,ESE,102,2.0,7.0,63,0.00,,,0.00,weatherlink.com 1.10,2013-02-01 13:39:00,
2013-02-01 07:45:00,23.9,13.1,30.45,ESE,105,3.0,4.0,63,0.00,,,0.00,Wunderground v.1.15,2013-02-01 13:45:00,
2013-02-01 07:55:00,24.1,13.0,30.46,East,94,2.0,7.0,62,0.00,,,0.00,weatherlink.com 1.10,2013-02-01 13:55:00,
2013-02-01 08:05:00,24.3,12.8,30.46,ESE,107,4.0,7.0,61,0.00,,,0.00,Wunderground v.1.15,2013-02-01 14:05:00,
2013-02-01 08:09:00,24.4,13.0,30.46,East,89,6.0,7.0,61,0.00,,,0.00,weatherlink.com 1.10,2013-02-01 14:09:00,
2013-02-01 08:15:00,24.8,13.2,30.46,ESE,115,4.0,4.0,61,0.00,,,0.00,Wunderground v.1.15,2013-02-01 14:15:00,
2013-02-01 08:23:00,25.0,13.0,30.46,SE,135,6.0,9.0,61,0.00,,,0.00,weatherlink.com 1.10,2013-02-01 14:23:00,
2013-02-01 08:30:00,25.2,12.5,30.46,ESE,115,5.0,5.0,58,0.00,,,0.00,Wunderground v.1.15,2013-02-01 14:30:00,
2013-02-01 08:35:00,25.2,12.9,30.45,East,84,5.0,9.0,59,0.00,,,0.00,Wunderground v.1.15,2013-02-01 14:35:00,
2013-02-01 08:39:00,25.3,12.0,30.45,ENE,59,4.0,10.0,58,0.00,,,0.00,weatherlink.com 1.10,2013-02-01 14:39:00,
2013-02-01 08:40:00,25.4,12.7,30.44,East,92,5.0,10.0,58,0.00,,,0.00,Wunderground v.1.15,2013-02-01 14:40:00,
2013-02-01 08:50:00,26.1,12.5,30.44,East,85,5.0,6.0,56,0.00,,,0.00,Wunderground v.1.15,2013-02-01 14:50:00,
2013-02-01 08:54:00,26.5,13.0,30.45,East,93,2.0,9.0,56,0.00,,,0.00,weatherlink.com 1.10,2013-02-01 14:54:00,
2013-02-01 09:00:00,26.8,12.4,30.45,NE,51,4.0,4.0,54,0.00,,,0.00,Wunderground v.1.15,2013-02-01 15:00:00,
2013-02-01 09:05:00,26.9,12.5,30.45,ENE,64,4.0,4.0,54,0.00,,,0.00,Wunderground v.1.15,2013-02-01 15:05:00,
2013-02-01 09:09:00,27.3,12.0,30.45,ENE,74,3.0,8.0,53,0.00,,,0.00,weatherlink.com 1.10,2013-02-01 15:09:00,
2013-02-01 09:15:00,27.8,13.3,30.46,NE,40,3.0,4.0,54,0.00,,,0.00,Wunderground v.1.15,2013-02-01 15:15:00,
2013-02-01 09:24:00,27.9,12.0,30.46,NE,36,4.0,8.0,51,0.00,,,0.00,weatherlink.com 1.10,2013-02-01 15:24:00,
2013-02-01 09:30:00,28.6,12.7,30.46,East,98,3.0,3.0,51,0.00,,,0.00,Wunderground v.1.15,2013-02-01 15:30:00,
2013-02-01 09:39:00,29.0,12.0,30.46,ESE,104,0.0,6.0,50,0.00,,,0.00,weatherlink.com 1.10,2013-02-01 15:39:00,
2013-02-01 09:40:00,29.0,12.7,30.46,ESE,104,2.0,2.0,50,0.00,,,0.00,Wunderground v.1.15,2013-02-01 15:40:00,
2013-02-01 09:45:00,29.3,12.0,30.46,East,88,3.0,3.0,48,0.00,,,0.00,Wunderground v.1.15,2013-02-01 15:45:00,
2013-02-01 09:50:00,29.5,12.7,30.45,East,90,3.0,5.0,49,0.00,,,0.00,Wunderground v.1.15,2013-02-01 15:50:00,
2013-02-01 09:54:00,29.9,13.0,30.45,NNE,33,3.0,6.0,49,0.00,,,0.00,weatherlink.com 1.10,2013-02-01 15:54:00,
2013-02-01 10:00:00,30.0,13.1,30.45,ENE,67,3.0,5.0,49,0.00,,,0.00,Wunderground v.1.15,2013-02-01 16:00:00,
2013-02-01 10:05:00,29.9,13.0,30.45,East,90,4.0,5.0,49,0.00,,,0.00,Wunderground v.1.15,2013-02-01 16:05:00,
2013-02-01 10:09:00,30.3,14.0,30.45,ESE,115,2.0,8.0,50,0.00,,,0.00,weatherlink.com 1.10,2013-02-01 16:09:00,
2013-02-01 10:15:00,31.4,13.9,30.45,ENE,76,3.0,4.0,48,0.00,,,0.00,Wunderground v.1.15,2013-02-01 16:15:00,
2013-02-01 10:24:00,32.1,14.0,30.45,ENE,76,4.0,6.0,47,0.00,,,0.00,weatherlink.com 1.10,2013-02-01 16:24:00,
2013-02-01 10:30:00,32.3,14.3,30.44,East,87,3.0,3.0,47,0.00,,,0.00,Wunderground v.1.15,2013-02-01 16:30:00,
2013-02-01 10:35:00,32.1,14.1,30.44,NE,48,3.0,4.0,47,0.00,,,0.00,Wunderground v.1.15,2013-02-01 16:35:00,
2013-02-01 10:39:00,32.2,14.0,30.44,NE,38,7.0,7.0,47,0.00,,,0.00,weatherlink.com 1.10,2013-02-01 16:39:00,
2013-02-01 10:45:00,33.0,14.9,30.44,NNE,31,4.0,4.0,47,0.00,,,0.00,Wunderground v.1.15,2013-02-01 16:45:00,
2013-02-01 10:50:00,33.5,15.4,30.44,East,84,2.0,2.0,47,0.00,,,0.00,Wunderground v.1.15,2013-02-01 16:50:00,
2013-02-01 10:55:00,34.1,15.0,30.44,ENE,77,2.0,7.0,46,0.00,,,0.00,weatherlink.com 1.10,2013-02-01 16:55:00,
2013-02-01 11:00:00,34.8,16.1,30.43,East,91,3.0,3.0,46,0.00,,,0.00,Wunderground v.1.15,2013-02-01 17:00:00,
2013-02-01 11:09:00,36.2,17.0,30.43,South,187,3.0,8.0,46,0.00,,,0.00,weatherlink.com 1.10,2013-02-01 17:09:00,
2013-02-01 11:15:00,37.4,18.0,30.43,SSE,163,3.0,3.0,45,0.00,,,0.00,Wunderground v.1.15,2013-02-01 17:15:00,
2013-02-01 11:20:00,37.8,17.8,30.43,SE,136,4.0,4.0,44,0.00,,,0.00,Wunderground v.1.15,2013-02-01 17:20:00,
2013-02-01 11:24:00,38.6,18.0,30.42,SSE,153,7.0,9.0,44,0.00,,,0.00,weatherlink.com 1.10,2013-02-01 17:24:00,
2013-02-01 11:30:00,39.4,18.7,30.42,ESE,121,4.0,5.0,43,0.00,,,0.00,Wunderground v.1.15,2013-02-01 17:30:00,
2013-02-01 11:35:00,39.3,18.1,30.41,ESE,123,5.0,5.0,42,0.00,,,0.00,Wunderground v.1.15,2013-02-01 17:35:00,
2013-02-01 11:40:00,39.6,19.5,30.41,ESE,113,4.0,7.0,44,0.00,,,0.00,Wunderground v.1.15,2013-02-01 17:40:00,
2013-02-01 11:41:00,39.7,19.0,30.41,SSE,159,6.0,10.0,44,0.00,,,0.00,weatherlink.com 1.10,2013-02-01 17:41:00,
2013-02-01 11:55:00,41.0,19.6,30.40,SE,132,5.0,5.0,42,0.00,,,0.00,Wunderground v.1.15,2013-02-01 17:55:00,
2013-02-01 11:56:00,41.0,19.0,30.40,SE,130,7.0,10.0,42,0.00,,,0.00,weatherlink.com 1.10,2013-02-01 17:56:00,
2013-02-01 12:00:00,41.1,20.3,30.40,ESE,105,5.0,5.0,43,0.00,,,0.00,Wunderground v.1.15,2013-02-01 18:00:00,
2013-02-01 12:05:00,41.2,20.4,30.39,East,90,4.0,6.0,43,0.00,,,0.00,Wunderground v.1.15,2013-02-01 18:05:00,
2013-02-01 12:10:00,41.6,20.7,30.39,East,93,5.0,7.0,43,0.00,,,0.00,Wunderground v.1.15,2013-02-01 18:10:00,
2013-02-01 12:11:00,41.6,20.0,30.39,ESE,119,4.0,10.0,43,0.00,,,0.00,weatherlink.com 1.10,2013-02-01 18:11:00,
2013-02-01 12:15:00,42.0,21.1,30.38,SE,138,6.0,9.0,43,0.00,,,0.00,Wunderground v.1.15,2013-02-01 18:15:00,
2013-02-01 12:20:00,42.2,20.7,30.38,SE,126,6.0,6.0,42,0.00,,,0.00,Wunderground v.1.15,2013-02-01 18:20:00,
2013-02-01 12:26:00,42.7,21.0,30.37,ESE,103,8.0,14.0,42,0.00,,,0.00,weatherlink.com 1.10,2013-02-01 18:26:00,
2013-02-01 12:35:00,43.3,22.3,30.36,ESE,107,7.0,10.0,43,0.00,,,0.00,Wunderground v.1.15,2013-02-01 18:35:00,
2013-02-01 12:40:00,43.6,22.0,30.36,ESE,121,7.0,10.0,42,0.00,,,0.00,Wunderground v.1.15,2013-02-01 18:40:00,
2013-02-01 12:41:00,43.7,22.0,30.36,SE,140,6.0,14.0,42,0.00,,,0.00,weatherlink.com 1.10,2013-02-01 18:41:00,
2013-02-01 12:50:00,44.2,22.5,30.35,ESE,117,7.0,7.0,42,0.00,,,0.00,Wunderground v.1.15,2013-02-01 18:50:00,
2013-02-01 12:55:00,44.7,23.0,30.34,South,173,7.0,8.0,42,0.00,,,0.00,Wunderground v.1.15,2013-02-01 18:55:00,
2013-02-01 12:56:00,44.9,23.0,30.34,SSE,163,6.0,13.0,42,0.00,,,0.00,weatherlink.com 1.10,2013-02-01 18:56:00,
2013-02-01 13:00:00,45.7,23.3,30.34,ESE,113,7.0,7.0,41,0.00,,,0.00,Wunderground v.1.15,2013-02-01 19:00:00,
2013-02-01 13:05:00,46.0,23.6,30.34,South,172,6.0,7.0,41,0.00,,,0.00,Wunderground v.1.15,2013-02-01 19:05:00,
2013-02-01 13:10:00,46.1,23.7,30.33,SSE,153,6.0,7.0,41,0.00,,,0.00,Wunderground v.1.15,2013-02-01 19:10:00,
2013-02-01 13:11:00,46.2,24.0,30.33,SE,124,8.0,10.0,41,0.00,,,0.00,weatherlink.com 1.10,2013-02-01 19:11:00,
2013-02-01 13:20:00,47.2,24.7,30.33,SE,144,6.0,6.0,41,0.00,,,0.00,Wunderground v.1.15,2013-02-01 19:20:00,
2013-02-01 13:25:00,47.3,25.3,30.33,SE,142,6.0,6.0,42,0.00,,,0.00,Wunderground v.1.15,2013-02-01 19:25:00,
2013-02-01 13:26:00,47.4,25.0,30.32,SSE,156,5.0,12.0,41,0.00,,,0.00,weatherlink.com 1.10,2013-02-01 19:26:00,
2013-02-01 13:35:00,47.9,24.1,30.32,SSE,153,8.0,11.0,39,0.00,,,0.00,Wunderground v.1.15,2013-02-01 19:35:00,
2013-02-01 13:41:00,48.3,24.0,30.31,South,186,7.0,14.0,39,0.00,,,0.00,weatherlink.com 1.10,2013-02-01 19:41:00,
2013-02-01 13:50:00,48.3,25.1,30.31,South,175,9.0,9.0,40,0.00,,,0.00,Wunderground v.1.15,2013-02-01 19:50:00,
2013-02-01 13:56:00,48.9,26.0,30.30,South,184,9.0,14.0,41,0.00,,,0.00,weatherlink.com 1.10,2013-02-01 19:56:00,
2013-02-01 14:05:00,49.2,25.9,30.30,South,179,7.0,13.0,40,0.00,,,0.00,Wunderground v.1.15,2013-02-01 20:05:00,
2013-02-01 14:10:00,49.1,25.2,30.30,SSW,193,9.0,9.0,39,0.00,,,0.00,Wunderground v.1.15,2013-02-01 20:10:00,
2013-02-01 14:11:00,48.9,25.0,30.30,South,188,7.0,15.0,40,0.00,,,0.00,weatherlink.com 1.10,2013-02-01 20:11:00,
2013-02-01 14:15:00,49.1,25.2,30.29,SE,124,9.0,11.0,39,0.00,,,0.00,Wunderground v.1.15,2013-02-01 20:15:00,
2013-02-01 14:20:00,49.2,25.9,30.29,South,185,9.0,9.0,40,0.00,,,0.00,Wunderground v.1.15,2013-02-01 20:20:00,
2013-02-01 14:25:00,49.0,25.7,30.29,SSW,194,10.0,13.0,40,0.00,,,0.00,Wunderground v.1.15,2013-02-01 20:25:00,
2013-02-01 14:26:00,48.9,25.0,30.29,South,174,12.0,16.0,40,0.00,,,0.00,weatherlink.com 1.10,2013-02-01 20:26:00,
2013-02-01 14:30:00,49.1,26.4,30.29,SSE,166,10.0,10.0,41,0.00,,,0.00,Wunderground v.1.15,2013-02-01 20:30:00,
2013-02-01 14:35:00,48.8,26.1,30.29,SSE,159,10.0,10.0,41,0.00,,,0.00,Wunderground v.1.15,2013-02-01 20:35:00,
2013-02-01 14:42:00,49.4,26.0,30.29,SSE,161,14.0,16.0,41,0.00,,,0.00,weatherlink.com 1.10,2013-02-01 20:42:00,
2013-02-01 14:50:00,49.8,26.4,30.29,South,169,10.0,10.0,40,0.00,,,0.00,Wunderground v.1.15,2013-02-01 20:50:00,
2013-02-01 14:55:00,49.5,26.7,30.28,South,185,10.0,12.0,41,0.00,,,0.00,Wunderground v.1.15,2013-02-01 20:55:00,
2013-02-01 14:57:00,49.5,27.0,30.28,SSE,165,11.0,20.0,42,0.00,,,0.00,weatherlink.com 1.10,2013-02-01 20:57:00,
2013-02-01 15:05:00,50.0,27.8,30.27,East,91,8.0,10.0,42,0.00,,,0.00,Wunderground v.1.15,2013-02-01 21:05:00,
2013-02-01 15:10:00,50.1,27.3,30.27,SSE,152,7.0,7.0,41,0.00,,,0.00,Wunderground v.1.15,2013-02-01 21:10:00,
2013-02-01 15:12:00,50.3,28.0,30.27,ESE,120,8.0,12.0,42,0.00,,,0.00,weatherlink.com 1.10,2013-02-01 21:12:00,
2013-02-01 15:20:00,50.8,27.9,30.26,SE,144,8.0,9.0,41,0.00,,,0.00,Wunderground v.1.15,2013-02-01 21:20:00,
2013-02-01 15:25:00,51.0,28.1,30.26,SSW,192,8.0,9.0,41,0.00,,,0.00,Wunderground v.1.15,2013-02-01 21:25:00,
2013-02-01 15:27:00,50.9,28.0,30.26,South,186,8.0,16.0,41,0.00,,,0.00,weatherlink.com 1.10,2013-02-01 21:27:00,
2013-02-01 15:35:00,51.5,28.6,30.24,SSW,193,9.0,9.0,41,0.00,,,0.00,Wunderground v.1.15,2013-02-01 21:35:00,
2013-02-01 15:40:00,52.0,29.0,30.24,SSE,162,8.0,8.0,41,0.00,,,0.00,Wunderground v.1.15,2013-02-01 21:40:00,
2013-02-01 15:42:00,52.0,29.0,30.24,South,172,5.0,17.0,41,0.00,,,0.00,weatherlink.com 1.10,2013-02-01 21:42:00,
2013-02-01 15:50:00,52.2,29.2,30.24,SSE,161,8.0,10.0,41,0.00,,,0.00,Wunderground v.1.15,2013-02-01 21:50:00,
2013-02-01 15:55:00,52.4,30.0,30.23,SSE,157,8.0,10.0,42,0.00,,,0.00,Wunderground v.1.15,2013-02-01 21:55:00,
2013-02-01 15:57:00,52.6,29.0,30.24,SSW,192,8.0,15.0,41,0.00,,,0.00,weatherlink.com 1.10,2013-02-01 21:57:00,
2013-02-01 16:05:00,52.8,29.7,30.23,SSE,163,8.0,8.0,41,0.00,,,0.00,Wunderground v.1.15,2013-02-01 22:05:00,
2013-02-01 16:10:00,52.9,30.4,30.23,SSE,148,8.0,11.0,42,0.00,,,0.00,Wunderground v.1.15,2013-02-01 22:10:00,
2013-02-01 16:12:00,53.1,30.0,30.23,SSE,161,11.0,14.0,41,0.00,,,0.00,weatherlink.com 1.10,2013-02-01 22:12:00,
2013-02-01 16:20:00,53.3,30.2,30.22,South,182,9.0,12.0,41,0.00,,,0.00,Wunderground v.1.15,2013-02-01 22:20:00,
2013-02-01 16:25:00,53.5,30.4,30.22,SE,125,9.0,12.0,41,0.00,,,0.00,Wunderground v.1.15,2013-02-01 22:25:00,
2013-02-01 16:29:00,53.6,30.0,30.22,South,169,5.0,16.0,41,0.00,,,0.00,weatherlink.com 1.10,2013-02-01 22:29:00,
2013-02-01 16:35:00,53.6,30.4,30.22,SSE,149,9.0,10.0,41,0.00,,,0.00,Wunderground v.1.15,2013-02-01 22:35:00,
2013-02-01 16:40:00,53.7,30.5,30.22,SSE,166,9.0,9.0,41,0.00,,,0.00,Wunderground v.1.15,2013-02-01 22:40:00,
2013-02-01 16:45:00,53.7,30.0,30.22,South,183,11.0,17.0,41,0.00,,,0.00,weatherlink.com 1.10,2013-02-01 22:45:00,
2013-02-01 16:50:00,53.6,30.4,30.22,SSE,159,11.0,11.0,41,0.00,,,0.00,Wunderground v.1.15,2013-02-01 22:50:00,
2013-02-01 16:58:00,53.5,31.0,30.21,South,180,10.0,19.0,42,0.00,,,0.00,weatherlink.com 1.10,2013-02-01 22:58:00,
2013-02-01 17:05:00,53.4,31.4,30.21,South,169,10.0,12.0,43,0.00,,,0.00,Wunderground v.1.15,2013-02-01 23:05:00,
2013-02-01 17:10:00,53.5,31.5,30.21,South,171,8.0,8.0,43,0.00,,,0.00,Wunderground v.1.15,2013-02-01 23:10:00,
2013-02-01 17:14:00,53.3,31.0,30.21,South,191,7.0,16.0,43,0.00,,,0.00,weatherlink.com 1.10,2013-02-01 23:14:00,
2013-02-01 17:15:00,53.3,31.4,30.21,South,190,8.0,8.0,43,0.00,,,0.00,Wunderground v.1.15,2013-02-01 23:15:00,
2013-02-01 17:20:00,53.2,31.8,30.21,SE,135,8.0,8.0,44,0.00,,,0.00,Wunderground v.1.15,2013-02-01 23:20:00,
2013-02-01 17:29:00,53.0,32.0,30.21,SSE,167,7.0,14.0,45,0.00,,,0.00,weatherlink.com 1.10,2013-02-01 23:29:00,
2013-02-01 17:35:00,52.9,32.1,30.21,SSE,168,7.0,11.0,45,0.00,,,0.00,Wunderground v.1.15,2013-02-01 23:35:00,
2013-02-01 17:44:00,52.6,32.0,30.21,SSE,165,6.0,10.0,46,0.00,,,0.00,weatherlink.com 1.10,2013-02-01 23:44:00,
2013-02-01 17:50:00,52.4,32.2,30.21,South,171,6.0,7.0,46,0.00,,,0.00,Wunderground v.1.15,2013-02-01 23:50:00,
2013-02-01 17:55:00,52.3,32.1,30.20,South,169,5.0,7.0,46,0.00,,,0.00,Wunderground v.1.15,2013-02-01 23:55:00,
2013-02-01 17:59:00,52.1,32.0,30.20,SSE,160,5.0,8.0,47,0.00,,,0.00,weatherlink.com 1.10,2013-02-01 23:59:00,
2013-02-01 18:05:00,51.9,32.3,30.20,SSE,167,5.0,6.0,47,0.00,,,0.00,Wunderground v.1.15,2013-02-02 00:05:00,
2013-02-01 18:14:00,51.5,32.0,30.21,SSE,150,3.0,8.0,48,0.00,,,0.00,weatherlink.com 1.10,2013-02-02 00:14:00,
2013-02-01 18:20:00,51.3,32.3,30.21,SSE,149,3.0,5.0,48,0.00,,,0.00,Wunderground v.1.15,2013-02-02 00:20:00,
2013-02-01 18:25:00,51.1,32.6,30.21,SSE,151,3.0,5.0,49,0.00,,,0.00,Wunderground v.1.15,2013-02-02 00:25:00,
2013-02-01 18:29:00,51.0,32.0,30.21,SSE,164,2.0,5.0,49,0.00,,,0.00,weatherlink.com 1.10,2013-02-02 00:29:00,
2013-02-01 18:35:00,50.7,32.2,30.21,SSE,161,2.0,3.0,49,0.00,,,0.00,Wunderground v.1.15,2013-02-02 00:35:00,
2013-02-01 18:44:00,50.4,32.0,30.22,SSE,149,3.0,7.0,50,0.00,,,0.00,weatherlink.com 1.10,2013-02-02 00:44:00,
2013-02-01 18:50:00,50.2,32.3,30.22,SSE,162,3.0,3.0,50,0.00,,,0.00,Wunderground v.1.15,2013-02-02 00:50:00,
2013-02-01 18:55:00,49.9,32.5,30.22,South,172,3.0,3.0,51,0.00,,,0.00,Wunderground v.1.15,2013-02-02 00:55:00,
2013-02-01 18:59:00,49.6,32.0,30.22,South,175,2.0,6.0,52,0.00,,,0.00,weatherlink.com 1.10,2013-02-02 00:59:00,
2013-02-01 19:05:00,49.3,32.9,30.22,South,182,4.0,5.0,53,0.00,,,0.00,Wunderground v.1.15,2013-02-02 01:05:00,
2013-02-01 19:10:00,49.1,33.2,30.22,South,182,4.0,4.0,54,0.00,,,0.00,Wunderground v.1.15,2013-02-02 01:10:00,
2013-02-01 19:14:00,49.0,34.0,30.22,South,178,3.0,7.0,56,0.00,,,0.00,weatherlink.com 1.10,2013-02-02 01:14:00,
2013-02-01 19:15:00,49.0,34.0,30.22,South,178,4.0,4.0,56,0.00,,,0.00,Wunderground v.1.15,2013-02-02 01:15:00,
2013-02-01 19:20:00,48.9,34.3,30.22,South,186,4.0,4.0,57,0.00,,,0.00,Wunderground v.1.15,2013-02-02 01:20:00,
2013-02-01 19:25:00,48.7,34.1,30.22,South,171,3.0,4.0,57,0.00,,,0.00,Wunderground v.1.15,2013-02-02 01:25:00,
2013-02-01 19:29:00,48.5,34.0,30.22,South,170,3.0,5.0,57,0.00,,,0.00,weatherlink.com 1.10,2013-02-02 01:29:00,
2013-02-01 19:35:00,48.4,33.9,30.22,South,171,3.0,4.0,57,0.00,,,0.00,Wunderground v.1.15,2013-02-02 01:35:00,
2013-02-01 19:44:00,48.1,34.0,30.22,SE,132,0.0,4.0,58,0.00,,,0.00,weatherlink.com 1.10,2013-02-02 01:44:00,
2013-02-01 19:50:00,47.7,33.6,30.22,SE,133,1.0,1.0,58,0.00,,,0.00,Wunderground v.1.15,2013-02-02 01:50:00,
2013-02-01 19:55:00,47.4,33.4,30.22,SE,132,1.0,2.0,58,0.00,,,0.00,Wunderground v.1.15,2013-02-02 01:55:00,
2013-02-01 19:59:00,47.1,32.0,30.22,SE,132,2.0,3.0,57,0.00,,,0.00,weatherlink.com 1.10,2013-02-02 01:59:00,
2013-02-01 20:05:00,46.8,32.8,30.22,SE,132,2.0,3.0,58,0.00,,,0.00,Wunderground v.1.15,2013-02-02 02:05:00,
2013-02-01 20:10:00,46.7,32.7,30.22,SSE,158,3.0,4.0,58,0.00,,,0.00,Wunderground v.1.15,2013-02-02 02:10:00,
2013-02-01 20:14:00,46.9,33.0,30.22,SSE,159,4.0,6.0,58,0.00,,,0.00,weatherlink.com 1.10,2013-02-02 02:14:00,
2013-02-01 20:20:00,47.2,33.2,30.22,SSE,156,4.0,4.0,58,0.00,,,0.00,Wunderground v.1.15,2013-02-02 02:20:00,
2013-02-01 20:25:00,47.2,33.2,30.23,SSE,149,4.0,4.0,58,0.00,,,0.00,Wunderground v.1.15,2013-02-02 02:25:00,
2013-02-01 20:29:00,47.1,33.0,30.23,SE,142,3.0,6.0,58,0.00,,,0.00,weatherlink.com 1.10,2013-02-02 02:29:00,
2013-02-01 20:30:00,47.1,33.1,30.23,SE,142,3.0,3.0,58,0.00,,,0.00,Wunderground v.1.15,2013-02-02 02:30:00,
2013-02-01 20:35:00,46.9,32.9,30.22,SE,126,3.0,3.0,58,0.00,,,0.00,Wunderground v.1.15,2013-02-02 02:35:00,
2013-02-01 20:45:00,46.1,33.0,30.23,ESE,112,3.0,5.0,60,0.00,,,0.00,weatherlink.com 1.10,2013-02-02 02:45:00,
2013-02-01 20:50:00,45.8,32.7,30.23,SE,134,3.0,3.0,60,0.00,,,0.00,Wunderground v.1.15,2013-02-02 02:50:00,
2013-02-01 20:55:00,45.7,33.0,30.23,SE,136,3.0,3.0,61,0.00,,,0.00,Wunderground v.1.15,2013-02-02 02:55:00,
2013-02-01 20:59:00,45.7,33.0,30.23,ESE,115,4.0,7.0,61,0.00,,,0.00,weatherlink.com 1.10,2013-02-02 02:59:00,
2013-02-01 21:05:00,45.4,32.7,30.23,SE,130,3.0,3.0,61,0.00,,,0.00,Wunderground v.1.15,2013-02-02 03:05:00,
2013-02-01 21:10:00,45.1,32.8,30.23,ESE,118,3.0,3.0,62,0.00,,,0.00,Wunderground v.1.15,2013-02-02 03:10:00,
2013-02-01 21:17:00,44.8,33.0,30.23,ESE,119,2.0,4.0,63,0.00,,,0.00,weatherlink.com 1.10,2013-02-02 03:17:00,
2013-02-01 21:25:00,44.4,33.0,30.23,ESE,121,2.0,2.0,64,0.00,,,0.00,Wunderground v.1.15,2013-02-02 03:25:00,
2013-02-01 21:31:00,44.3,33.0,30.23,SE,131,4.0,7.0,65,0.00,,,0.00,weatherlink.com 1.10,2013-02-02 03:31:00,
2013-02-01 21:35:00,44.4,33.4,30.23,SE,138,5.0,5.0,65,0.00,,,0.00,Wunderground v.1.15,2013-02-02 03:35:00,
2013-02-01 21:40:00,44.6,33.6,30.22,SE,140,5.0,5.0,65,0.00,,,0.00,Wunderground v.1.15,2013-02-02 03:40:00,
2013-02-01 21:45:00,44.5,33.5,30.22,ESE,122,4.0,5.0,65,0.00,,,0.00,Wunderground v.1.15,2013-02-02 03:45:00,
2013-02-01 21:46:00,44.6,34.0,30.22,SE,140,6.0,8.0,66,0.00,,,0.00,weatherlink.com 1.10,2013-02-02 03:46:00,
2013-02-01 21:55:00,44.6,33.9,30.22,ESE,113,5.0,5.0,66,0.00,,,0.00,Wunderground v.1.15,2013-02-02 03:55:00,
2013-02-01 22:01:00,44.2,33.0,30.22,SE,132,6.0,9.0,66,0.00,,,0.00,weatherlink.com 1.10,2013-02-02 04:01:00,
2013-02-01 22:10:00,43.7,33.5,30.22,SE,142,4.0,4.0,67,0.00,,,0.00,Wunderground v.1.15,2013-02-02 04:10:00,
2013-02-01 22:15:00,43.9,33.6,30.22,SE,132,5.0,7.0,67,0.00,,,0.00,Wunderground v.1.15,2013-02-02 04:15:00,
2013-02-01 22:16:00,43.9,34.0,30.22,SSE,149,6.0,8.0,67,0.00,,,0.00,weatherlink.com 1.10,2013-02-02 04:16:00,
2013-02-01 22:20:00,43.8,33.6,30.22,SE,128,6.0,6.0,67,0.00,,,0.00,Wunderground v.1.15,2013-02-02 04:20:00,
2013-02-01 22:25:00,43.4,33.2,30.22,SSE,150,5.0,6.0,67,0.00,,,0.00,Wunderground v.1.15,2013-02-02 04:25:00,
2013-02-01 22:30:00,43.2,33.3,30.22,SE,142,5.0,5.0,68,0.00,,,0.00,Wunderground v.1.15,2013-02-02 04:30:00,
2013-02-01 22:31:00,43.2,33.0,30.21,SE,128,9.0,9.0,68,0.00,,,0.00,weatherlink.com 1.10,2013-02-02 04:31:00,
2013-02-01 22:40:00,43.2,33.3,30.21,SE,134,6.0,7.0,68,0.00,,,0.00,Wunderground v.1.15,2013-02-02 04:40:00,
2013-02-01 22:45:00,43.2,33.3,30.21,SE,146,6.0,8.0,68,0.00,,,0.00,Wunderground v.1.15,2013-02-02 04:45:00,
2013-02-01 22:46:00,43.2,33.0,30.21,SE,144,7.0,9.0,68,0.00,,,0.00,weatherlink.com 1.10,2013-02-02 04:46:00,
2013-02-01 22:55:00,43.0,33.5,30.21,SE,126,6.0,6.0,69,0.00,,,0.00,Wunderground v.1.15,2013-02-02 04:55:00,
2013-02-01 23:00:00,42.8,33.3,30.21,ESE,119,5.0,5.0,69,0.00,,,0.00,Wunderground v.1.15,2013-02-02 05:00:00,
2013-02-01 23:01:00,42.8,33.0,30.21,SE,146,7.0,8.0,69,0.00,,,0.00,weatherlink.com 1.10,2013-02-02 05:01:00,
2013-02-01 23:10:00,42.7,33.2,30.21,SE,136,5.0,5.0,69,0.00,,,0.00,Wunderground v.1.15,2013-02-02 05:10:00,
2013-02-01 23:15:00,42.5,33.4,30.20,SE,128,4.0,5.0,70,0.00,,,0.00,Wunderground v.1.15,2013-02-02 05:15:00,
2013-02-01 23:16:00,42.5,33.0,30.20,ESE,103,2.0,7.0,70,0.00,,,0.00,weatherlink.com 1.10,2013-02-02 05:16:00,
2013-02-01 23:20:00,42.4,33.3,30.20,SE,126,4.0,4.0,70,0.00,,,0.00,Wunderground v.1.15,2013-02-02 05:20:00,
2013-02-01 23:25:00,42.4,33.3,30.20,SE,128,4.0,5.0,70,0.00,,,0.00,Wunderground v.1.15,2013-02-02 05:25:00,
2013-02-01 23:30:00,42.4,33.3,30.20,SE,130,4.0,5.0,70,0.00,,,0.00,Wunderground v.1.15,2013-02-02 05:30:00,
2013-02-01 23:31:00,42.4,33.0,30.20,SE,132,5.0,7.0,70,0.00,,,0.00,weatherlink.com 1.10,2013-02-02 05:31:00,
2013-02-01 23:35:00,42.4,33.3,30.20,SE,132,4.0,5.0,70,0.00,,,0.00,Wunderground v.1.15,2013-02-02 05:35:00,
2013-02-01 23:40:00,42.4,33.3,30.20,ESE,118,5.0,5.0,70,0.00,,,0.00,Wunderground v.1.15,2013-02-02 05:40:00,
2013-02-01 23:45:00,42.3,32.8,30.19,ESE,121,5.0,5.0,69,0.00,,,0.00,Wunderground v.1.15,2013-02-02 05:45:00,
2013-02-01 23:46:00,42.3,33.0,30.20,SE,130,3.0,7.0,70,0.00,,,0.00,weatherlink.com 1.10,2013-02-02 05:46:00,
2013-02-01 23:55:00,42.0,32.9,30.19,ESE,119,3.0,4.0,70,0.00,,,0.00,Wunderground v.1.15,2013-02-02 05:55:00,